Terminal Aerodrome Forecast
Issued by NWS Wilmington, NC

Home | Current Version | Previous Version | Text Only | Print | Product List | Glossary On
Versions: 1 2 3 4 5 6 7 8 9 10 11 12 13 14 15 16 17 18
113
FTUS42 KILM 231120
TAFMYR
TAF
KMYR 231120Z 2312/2412 03011KT P6SM BKN100
     FM231700 04011KT P6SM BKN040 OVC100
     FM240300 02009KT P6SM BKN200=

USA.gov is the U.S. government's official web portal to all federal, state and local government web resources and services.